CA-0435 weather

WESCAM Burlington
Burlington, Ontario, Canada

Public forecast

Using degrees Celsius for public forecast. Weather courtesy of forecast.io.

METAR (pilot weather report)

Closest report is John C. Munro Hamilton International Airport, 11.0 nm (20.3 km) SSW. Retrieved 2019/05/22 10:00 UTC (27 minutes ago):

CYHM 221000Z 09004KT 15SM FEW170 BKN200 BKN240 08/04 A3021 RMK AC2CC3CI2 SLP234

TAF (pilot weather forecast)

Closest forecast is John C. Munro Hamilton International Airport, 11.0 nm (20.3 km) SSW. Retrieved 2019/05/22 06:42 UTC (4 hours ago):

TAF CYHM 220538Z 2206/2306 08006KT P6SM BKN200 FM221000 08010KT P6SM BKN170 FM221500 10012G22KT P6SM BKN090 OVC170 FM221900 10010G20KT P6SM OVC080 TEMPO 2219/2222 P6SM -SHRA FM222200 10012KT 6SM -SHRA BR OVC012 TEMPO 2301/2303 P6SM NSW BKN020 FM230300 13006KT P6SM SCT020 RMK NXT FCST BY 221200Z